sensor_id;sensor_type;location;lat;lon;timestamp;temperature;humidity
69823;SHT31;57119;52.516;13.508;2023-08-07T00:01:41;14.60;99.89
69823;SHT31;57119;52.516;13.508;2023-08-07T00:04:07;14.61;99.99
69823;SHT31;57119;52.516;13.508;2023-08-07T00:06:32;14.60;99.93
69823;SHT31;57119;52.516;13.508;2023-08-07T00:08:57;14.64;99.71
69823;SHT31;57119;52.516;13.508;2023-08-07T00:11:23;14.60;99.99
69823;SHT31;57119;52.516;13.508;2023-08-07T00:13:48;14.58;99.99
69823;SHT31;57119;52.516;13.508;2023-08-07T00:16:14;14.60;99.99
69823;SHT31;57119;52.516;13.508;2023-08-07T00:18:39;14.51;99.99
69823;SHT31;57119;52.516;13.508;2023-08-07T00:21:04;14.48;99.99
69823;SHT31;57119;52.516;13.508;2023-08-07T00:23:30;14.52;99.99
69823;SHT31;57119;52.516;13.508;2023-08-07T00:25:55;14.50;99.99
69823;SHT31;57119;52.516;13.508;2023-08-07T00:28:20;14.57;99.99
69823;SHT31;57119;52.516;13.508;2023-08-07T00:30:46;14.60;99.99
69823;SHT31;57119;52.516;13.508;2023-08-07T00:33:11;14.65;99.99
69823;SHT31;57119;52.516;13.508;2023-08-07T00:35:37;14.65;99.99
69823;SHT31;57119;52.516;13.508;2023-08-07T00:38:02;14.67;99.99
69823;SHT31;57119;52.516;13.508;2023-08-07T00:40:28;14.60;99.99
69823;SHT31;57119;52.516;13.508;2023-08-07T00:43:00;14.67;99.99
69823;SHT31;57119;52.516;13.508;2023-08-07T00:45:26;14.67;99.99
69823;SHT31;57119;52.516;13.508;2023-08-07T00:47:51;14.65;99.99
69823;SHT31;57119;52.516;13.508;2023-08-07T00:50:17;14.71;99.99
69823;SHT31;57119;52.516;13.508;2023-08-07T00:52:42;14.72;99.99
69823;SHT31;57119;52.516;13.508;2023-08-07T00:55:08;14.72;99.99
69823;SHT31;57119;52.516;13.508;2023-08-07T00:57:33;14.74;99.99
69823;SHT31;57119;52.516;13.508;2023-08-07T00:59:59;14.77;99.99
69823;SHT31;57119;52.516;13.508;2023-08-07T01:02:25;14.77;99.99
69823;SHT31;57119;52.516;13.508;2023-08-07T01:04:50;14.81;99.99
69823;SHT31;57119;52.516;13.508;2023-08-07T01:07:16;14.79;99.99
69823;SHT31;57119;52.516;13.508;2023-08-07T01:09:41;14.81;99.99
69823;SHT31;57119;52.516;13.508;2023-08-07T01:12:19;14.84;99.99
69823;SHT31;57119;52.516;13.508;2023-08-07T01:15:06;14.82;99.99
69823;SHT31;57119;52.516;13.508;2023-08-07T01:17:36;14.82;99.99
69823;SHT31;57119;52.516;13.508;2023-08-07T01:20:02;14.84;99.99
69823;SHT31;57119;52.516;13.508;2023-08-07T01:22:29;14.89;99.99
69823;SHT31;57119;52.516;13.508;2023-08-07T01:24:54;14.91;99.99
69823;SHT31;57119;52.516;13.508;2023-08-07T01:29:59;14.91;99.99
69823;SHT31;57119;52.516;13.508;2023-08-07T01:35:12;14.95;99.37
69823;SHT31;57119;52.516;13.508;2023-08-07T01:37:41;14.95;99.33
69823;SHT31;57119;52.516;13.508;2023-08-07T01:40:08;14.96;99.32
69823;SHT31;57119;52.516;13.508;2023-08-07T01:42:35;14.92;99.20
69823;SHT31;57119;52.516;13.508;2023-08-07T01:45:01;14.93;99.12
69823;SHT31;57119;52.516;13.508;2023-08-07T01:47:26;14.95;99.20
69823;SHT31;57119;52.516;13.508;2023-08-07T01:49:52;14.99;98.42
69823;SHT31;57119;52.516;13.508;2023-08-07T01:52:17;14.98;98.62
69823;SHT31;57119;52.516;13.508;2023-08-07T01:54:43;14.95;99.10
69823;SHT31;57119;52.516;13.508;2023-08-07T01:57:08;14.89;99.27
69823;SHT31;57119;52.516;13.508;2023-08-07T01:59:33;14.84;99.73
69823;SHT31;57119;52.516;13.508;2023-08-07T02:01:59;14.79;99.77
69823;SHT31;57119;52.516;13.508;2023-08-07T02:04:24;14.74;99.99
69823;SHT31;57119;52.516;13.508;2023-08-07T02:06:50;14.65;99.99
69823;SHT31;57119;52.516;13.508;2023-08-07T02:09:15;14.65;99.99
69823;SHT31;57119;52.516;13.508;2023-08-07T02:11:40;14.60;99.99
69823;SHT31;57119;52.516;13.508;2023-08-07T02:14:06;14.57;99.99
69823;SHT31;57119;52.516;13.508;2023-08-07T02:16:31;14.57;99.99
69823;SHT31;57119;52.516;13.508;2023-08-07T02:18:56;14.60;99.99
69823;SHT31;57119;52.516;13.508;2023-08-07T02:21:22;14.63;99.99
69823;SHT31;57119;52.516;13.508;2023-08-07T02:23:47;14.61;99.99
69823;SHT31;57119;52.516;13.508;2023-08-07T02:26:13;14.61;99.99
69823;SHT31;57119;52.516;13.508;2023-08-07T02:28:38;14.57;99.99
69823;SHT31;57119;52.516;13.508;2023-08-07T02:31:03;14.64;99.99
69823;SHT31;57119;52.516;13.508;2023-08-07T02:33:29;14.65;99.99
69823;SHT31;57119;52.516;13.508;2023-08-07T02:35:57;14.72;99.99
69823;SHT31;57119;52.516;13.508;2023-08-07T02:38:22;14.74;99.99
69823;SHT31;57119;52.516;13.508;2023-08-07T02:40:48;14.74;99.99
69823;SHT31;57119;52.516;13.508;2023-08-07T02:43:13;14.81;99.99
69823;SHT31;57119;52.516;13.508;2023-08-07T02:45:38;14.88;99.99
69823;SHT31;57119;52.516;13.508;2023-08-07T02:48:04;14.88;99.99
69823;SHT31;57119;52.516;13.508;2023-08-07T02:50:30;14.98;99.99
69823;SHT31;57119;52.516;13.508;2023-08-07T02:52:58;14.93;99.99
69823;SHT31;57119;52.516;13.508;2023-08-07T02:55:23;15.00;99.99
69823;SHT31;57119;52.516;13.508;2023-08-07T02:57:49;15.00;99.99
69823;SHT31;57119;52.516;13.508;2023-08-07T03:00:14;15.03;99.99
69823;SHT31;57119;52.516;13.508;2023-08-07T03:02:39;15.09;99.99
69823;SHT31;57119;52.516;13.508;2023-08-07T03:05:05;15.13;99.99
69823;SHT31;57119;52.516;13.508;2023-08-07T03:07:30;15.18;99.99
69823;SHT31;57119;52.516;13.508;2023-08-07T03:09:56;15.18;99.99
69823;SHT31;57119;52.516;13.508;2023-08-07T03:12:21;15.15;99.99
69823;SHT31;57119;52.516;13.508;2023-08-07T03:14:46;15.18;99.99
69823;SHT31;57119;52.516;13.508;2023-08-07T03:17:12;15.19;99.99
69823;SHT31;57119;52.516;13.508;2023-08-07T03:19:39;15.19;99.99
69823;SHT31;57119;52.516;13.508;2023-08-07T03:22:05;15.15;99.99
69823;SHT31;57119;52.516;13.508;2023-08-07T03:24:30;15.15;99.99
69823;SHT31;57119;52.516;13.508;2023-08-07T03:26:56;15.15;99.99
69823;SHT31;57119;52.516;13.508;2023-08-07T03:29:21;15.13;99.99
69823;SHT31;57119;52.516;13.508;2023-08-07T03:31:46;15.15;99.99
69823;SHT31;57119;52.516;13.508;2023-08-07T03:34:12;15.10;99.99
69823;SHT31;57119;52.516;13.508;2023-08-07T03:36:37;15.06;99.99
69823;SHT31;57119;52.516;13.508;2023-08-07T03:39:02;15.08;99.99
69823;SHT31;57119;52.516;13.508;2023-08-07T03:41:28;15.08;99.99
69823;SHT31;57119;52.516;13.508;2023-08-07T03:43:53;15.08;99.99
69823;SHT31;57119;52.516;13.508;2023-08-07T03:46:19;15.10;99.99
69823;SHT31;57119;52.516;13.508;2023-08-07T03:48:44;15.15;99.99
69823;SHT31;57119;52.516;13.508;2023-08-07T03:51:09;15.15;99.99
69823;SHT31;57119;52.516;13.508;2023-08-07T03:53:36;15.15;99.99
69823;SHT31;57119;52.516;13.508;2023-08-07T03:56:02;15.19;99.99
69823;SHT31;57119;52.516;13.508;2023-08-07T03:58:27;15.19;99.99
69823;SHT31;57119;52.516;13.508;2023-08-07T04:00:53;15.19;99.99
69823;SHT31;57119;52.516;13.508;2023-08-07T04:03:19;15.20;99.99
69823;SHT31;57119;52.516;13.508;2023-08-07T04:05:45;15.23;99.99
69823;SHT31;57119;52.516;13.508;2023-08-07T04:08:10;15.23;99.99
69823;SHT31;57119;52.516;13.508;2023-08-07T04:10:36;15.23;99.99
69823;SHT31;57119;52.516;13.508;2023-08-07T04:13:01;15.22;99.99
69823;SHT31;57119;52.516;13.508;2023-08-07T04:15:26;15.20;99.99
69823;SHT31;57119;52.516;13.508;2023-08-07T04:17:52;15.20;99.99
69823;SHT31;57119;52.516;13.508;2023-08-07T04:20:17;15.29;99.99
69823;SHT31;57119;52.516;13.508;2023-08-07T04:22:43;15.32;99.99
69823;SHT31;57119;52.516;13.508;2023-08-07T04:25:10;15.40;99.99
69823;SHT31;57119;52.516;13.508;2023-08-07T04:27:35;15.51;99.99
69823;SHT31;57119;52.516;13.508;2023-08-07T04:30:00;15.49;99.99
69823;SHT31;57119;52.516;13.508;2023-08-07T04:32:26;15.44;99.99
69823;SHT31;57119;52.516;13.508;2023-08-07T04:34:51;15.43;99.99
69823;SHT31;57119;52.516;13.508;2023-08-07T04:37:16;15.44;99.99
69823;SHT31;57119;52.516;13.508;2023-08-07T04:39:42;15.44;99.99
69823;SHT31;57119;52.516;13.508;2023-08-07T04:42:07;15.44;99.99
69823;SHT31;57119;52.516;13.508;2023-08-07T04:44:32;15.46;99.99
69823;SHT31;57119;52.516;13.508;2023-08-07T04:46:58;15.51;99.99
69823;SHT31;57119;52.516;13.508;2023-08-07T04:49:23;15.53;99.99
69823;SHT31;57119;52.516;13.508;2023-08-07T04:51:48;15.51;99.99
69823;SHT31;57119;52.516;13.508;2023-08-07T04:54:14;15.54;99.99
69823;SHT31;57119;52.516;13.508;2023-08-07T04:56:39;15.56;99.99
69823;SHT31;57119;52.516;13.508;2023-08-07T04:59:05;15.54;99.99
69823;SHT31;57119;52.516;13.508;2023-08-07T05:01:31;15.63;99.99
69823;SHT31;57119;52.516;13.508;2023-08-07T05:03:56;15.64;99.99
69823;SHT31;57119;52.516;13.508;2023-08-07T05:06:23;15.67;99.99
69823;SHT31;57119;52.516;13.508;2023-08-07T05:08:48;15.73;99.99
69823;SHT31;57119;52.516;13.508;2023-08-07T05:11:13;15.65;99.99
69823;SHT31;57119;52.516;13.508;2023-08-07T05:13:40;15.65;99.99
69823;SHT31;57119;52.516;13.508;2023-08-07T05:16:05;15.65;99.99
69823;SHT31;57119;52.516;13.508;2023-08-07T05:18:31;15.73;99.99
69823;SHT31;57119;52.516;13.508;2023-08-07T05:20:56;15.74;99.99
69823;SHT31;57119;52.516;13.508;2023-08-07T05:23:22;15.71;99.99
69823;SHT31;57119;52.516;13.508;2023-08-07T05:25:47;15.70;99.99
69823;SHT31;57119;52.516;13.508;2023-08-07T05:28:13;15.71;99.99
69823;SHT31;57119;52.516;13.508;2023-08-07T05:30:38;15.67;99.99
69823;SHT31;57119;52.516;13.508;2023-08-07T05:33:04;15.67;99.99
69823;SHT31;57119;52.516;13.508;2023-08-07T05:35:29;15.67;99.99
69823;SHT31;57119;52.516;13.508;2023-08-07T05:37:55;15.58;99.99
69823;SHT31;57119;52.516;13.508;2023-08-07T05:40:20;15.51;99.99
69823;SHT31;57119;52.516;13.508;2023-08-07T05:42:46;15.49;99.99
69823;SHT31;57119;52.516;13.508;2023-08-07T05:45:11;15.47;99.99
69823;SHT31;57119;52.516;13.508;2023-08-07T05:47:37;15.46;99.99
69823;SHT31;57119;52.516;13.508;2023-08-07T05:50:02;15.46;99.99
69823;SHT31;57119;52.516;13.508;2023-08-07T05:52:28;15.44;99.99
69823;SHT31;57119;52.516;13.508;2023-08-07T05:54:53;15.56;99.99
69823;SHT31;57119;52.516;13.508;2023-08-07T05:57:18;15.57;99.99
69823;SHT31;57119;52.516;13.508;2023-08-07T05:59:44;15.61;99.99
69823;SHT31;57119;52.516;13.508;2023-08-07T06:02:10;15.70;99.55
69823;SHT31;57119;52.516;13.508;2023-08-07T06:04:37;15.75;99.43
69823;SHT31;57119;52.516;13.508;2023-08-07T06:07:02;15.87;99.07
69823;SHT31;57119;52.516;13.508;2023-08-07T06:09:28;15.98;98.71
69823;SHT31;57119;52.516;13.508;2023-08-07T06:11:54;15.94;98.47
69823;SHT31;57119;52.516;13.508;2023-08-07T06:14:19;16.05;98.10
69823;SHT31;57119;52.516;13.508;2023-08-07T06:16:45;16.11;97.93
69823;SHT31;57119;52.516;13.508;2023-08-07T06:19:10;16.23;97.91
69823;SHT31;57119;52.516;13.508;2023-08-07T06:21:36;16.26;97.50
69823;SHT31;57119;52.516;13.508;2023-08-07T06:24:01;16.32;97.20
69823;SHT31;57119;52.516;13.508;2023-08-07T06:26:27;16.41;96.78
69823;SHT31;57119;52.516;13.508;2023-08-07T06:28:52;16.59;96.75
69823;SHT31;57119;52.516;13.508;2023-08-07T06:31:18;16.79;95.78
69823;SHT31;57119;52.516;13.508;2023-08-07T06:33:43;16.92;95.42
69823;SHT31;57119;52.516;13.508;2023-08-07T06:36:09;17.10;94.38
69823;SHT31;57119;52.516;13.508;2023-08-07T06:38:34;17.04;94.62
69823;SHT31;57119;52.516;13.508;2023-08-07T06:40:59;17.32;94.19
69823;SHT31;57119;52.516;13.508;2023-08-07T06:43:25;17.38;93.66
69823;SHT31;57119;52.516;13.508;2023-08-07T06:45:54;17.53;92.50
69823;SHT31;57119;52.516;13.508;2023-08-07T06:48:19;17.49;92.28
69823;SHT31;57119;52.516;13.508;2023-08-07T06:50:51;17.45;92.34
69823;SHT31;57119;52.516;13.508;2023-08-07T06:53:17;17.55;91.96
69823;SHT31;57119;52.516;13.508;2023-08-07T06:55:43;17.63;91.37
69823;SHT31;57119;52.516;13.508;2023-08-07T06:58:09;17.56;91.54
69823;SHT31;57119;52.516;13.508;2023-08-07T07:00:35;17.70;91.18
69823;SHT31;57119;52.516;13.508;2023-08-07T07:03:02;17.56;90.31
69823;SHT31;57119;52.516;13.508;2023-08-07T07:05:27;17.76;90.24
69823;SHT31;57119;52.516;13.508;2023-08-07T07:07:53;17.79;89.84
69823;SHT31;57119;52.516;13.508;2023-08-07T07:10:20;17.75;89.06
69823;SHT31;57119;52.516;13.508;2023-08-07T07:12:45;17.85;89.45
69823;SHT31;57119;52.516;13.508;2023-08-07T07:15:10;17.93;88.64
69823;SHT31;57119;52.516;13.508;2023-08-07T07:17:36;18.25;88.90
69823;SHT31;57119;52.516;13.508;2023-08-07T07:20:01;18.11;88.48
69823;SHT31;57119;52.516;13.508;2023-08-07T07:22:27;18.15;87.84
69823;SHT31;57119;52.516;13.508;2023-08-07T07:24:54;18.51;87.16
69823;SHT31;57119;52.516;13.508;2023-08-07T07:27:19;18.55;86.85
69823;SHT31;57119;52.516;13.508;2023-08-07T07:29:45;18.56;86.41
69823;SHT31;57119;52.516;13.508;2023-08-07T07:32:10;18.47;86.92
69823;SHT31;57119;52.516;13.508;2023-08-07T07:34:35;18.92;85.94
69823;SHT31;57119;52.516;13.508;2023-08-07T07:37:01;19.13;85.63
69823;SHT31;57119;52.516;13.508;2023-08-07T07:39:26;19.54;84.91
69823;SHT31;57119;52.516;13.508;2023-08-07T07:41:51;19.24;84.47
69823;SHT31;57119;52.516;13.508;2023-08-07T07:44:17;19.06;84.88
69823;SHT31;57119;52.516;13.508;2023-08-07T07:46:42;19.37;84.71
69823;SHT31;57119;52.516;13.508;2023-08-07T07:49:07;19.38;83.84
69823;SHT31;57119;52.516;13.508;2023-08-07T07:51:33;19.50;84.36
69823;SHT31;57119;52.516;13.508;2023-08-07T07:54:00;19.61;83.67
69823;SHT31;57119;52.516;13.508;2023-08-07T07:56:26;19.43;84.64
69823;SHT31;57119;52.516;13.508;2023-08-07T07:58:51;19.67;84.17
69823;SHT31;57119;52.516;13.508;2023-08-07T08:01:16;19.50;84.24
69823;SHT31;57119;52.516;13.508;2023-08-07T08:03:43;19.60;84.08
69823;SHT31;57119;52.516;13.508;2023-08-07T08:06:09;19.51;84.24
69823;SHT31;57119;52.516;13.508;2023-08-07T08:08:34;19.53;84.36
69823;SHT31;57119;52.516;13.508;2023-08-07T08:10:59;19.44;83.82
69823;SHT31;57119;52.516;13.508;2023-08-07T08:13:25;19.24;84.79
69823;SHT31;57119;52.516;13.508;2023-08-07T08:15:50;19.30;84.62
69823;SHT31;57119;52.516;13.508;2023-08-07T08:18:16;19.30;84.62
69823;SHT31;57119;52.516;13.508;2023-08-07T08:20:41;19.55;84.00
69823;SHT31;57119;52.516;13.508;2023-08-07T08:23:06;19.41;83.92
69823;SHT31;57119;52.516;13.508;2023-08-07T08:25:32;18.91;84.90
69823;SHT31;57119;52.516;13.508;2023-08-07T08:28:00;18.72;86.08
69823;SHT31;57119;52.516;13.508;2023-08-07T08:30:27;18.64;86.01
69823;SHT31;57119;52.516;13.508;2023-08-07T08:32:52;18.76;86.05
69823;SHT31;57119;52.516;13.508;2023-08-07T08:35:18;18.82;86.61
69823;SHT31;57119;52.516;13.508;2023-08-07T08:37:43;19.04;86.50
69823;SHT31;57119;52.516;13.508;2023-08-07T08:40:09;18.62;86.81
69823;SHT31;57119;52.516;13.508;2023-08-07T08:42:39;18.40;87.59
69823;SHT31;57119;52.516;13.508;2023-08-07T08:45:08;18.55;87.89
69823;SHT31;57119;52.516;13.508;2023-08-07T08:47:36;18.56;87.67
69823;SHT31;57119;52.516;13.508;2023-08-07T08:50:06;18.73;86.95
69823;SHT31;57119;52.516;13.508;2023-08-07T08:52:32;18.83;87.02
69823;SHT31;57119;52.516;13.508;2023-08-07T08:54:58;19.28;86.31
69823;SHT31;57119;52.516;13.508;2023-08-07T08:57:25;19.54;85.46
69823;SHT31;57119;52.516;13.508;2023-08-07T08:59:52;19.79;84.41
69823;SHT31;57119;52.516;13.508;2023-08-07T09:02:17;20.05;83.77
69823;SHT31;57119;52.516;13.508;2023-08-07T09:04:45;19.85;83.26
69823;SHT31;57119;52.516;13.508;2023-08-07T09:07:13;20.02;82.57
69823;SHT31;57119;52.516;13.508;2023-08-07T09:09:40;20.22;81.59
69823;SHT31;57119;52.516;13.508;2023-08-07T09:12:08;20.10;83.01
69823;SHT31;57119;52.516;13.508;2023-08-07T09:14:39;20.13;82.82
69823;SHT31;57119;52.516;13.508;2023-08-07T09:17:06;20.09;82.61
69823;SHT31;57119;52.516;13.508;2023-08-07T09:19:32;20.09;82.36
69823;SHT31;57119;52.516;13.508;2023-08-07T09:21:58;20.16;82.72
69823;SHT31;57119;52.516;13.508;2023-08-07T09:24:23;20.30;82.61
69823;SHT31;57119;52.516;13.508;2023-08-07T09:26:51;20.06;82.35
69823;SHT31;57119;52.516;13.508;2023-08-07T09:29:18;19.69;82.64
69823;SHT31;57119;52.516;13.508;2023-08-07T09:31:43;20.15;82.61
69823;SHT31;57119;52.516;13.508;2023-08-07T09:34:11;20.54;81.78
69823;SHT31;57119;52.516;13.508;2023-08-07T09:36:39;20.61;81.20
69823;SHT31;57119;52.516;13.508;2023-08-07T09:39:04;20.44;81.66
69823;SHT31;57119;52.516;13.508;2023-08-07T09:41:30;20.84;81.29
69823;SHT31;57119;52.516;13.508;2023-08-07T09:43:56;20.34;81.96
69823;SHT31;57119;52.516;13.508;2023-08-07T09:46:22;20.25;81.61
69823;SHT31;57119;52.516;13.508;2023-08-07T09:48:50;20.33;81.33
69823;SHT31;57119;52.516;13.508;2023-08-07T09:51:15;20.34;81.66
69823;SHT31;57119;52.516;13.508;2023-08-07T09:53:40;20.39;81.75
69823;SHT31;57119;52.516;13.508;2023-08-07T09:56:06;20.06;83.44
69823;SHT31;57119;52.516;13.508;2023-08-07T09:58:31;19.93;83.90
69823;SHT31;57119;52.516;13.508;2023-08-07T10:01:02;19.96;83.97
69823;SHT31;57119;52.516;13.508;2023-08-07T10:03:29;19.98;83.63
69823;SHT31;57119;52.516;13.508;2023-08-07T10:05:55;19.83;83.03
69823;SHT31;57119;52.516;13.508;2023-08-07T10:08:21;19.48;84.25
69823;SHT31;57119;52.516;13.508;2023-08-07T10:10:47;19.44;84.40
69823;SHT31;57119;52.516;13.508;2023-08-07T10:13:13;19.89;82.97
69823;SHT31;57119;52.516;13.508;2023-08-07T10:15:39;20.02;83.15
69823;SHT31;57119;52.516;13.508;2023-08-07T10:18:07;20.23;82.31
69823;SHT31;57119;52.516;13.508;2023-08-07T10:20:34;20.41;81.72
69823;SHT31;57119;52.516;13.508;2023-08-07T10:23:04;20.37;80.44
69823;SHT31;57119;52.516;13.508;2023-08-07T10:25:32;20.15;80.11
69823;SHT31;57119;52.516;13.508;2023-08-07T10:27:58;20.54;79.77
69823;SHT31;57119;52.516;13.508;2023-08-07T10:30:25;20.87;79.77
69823;SHT31;57119;52.516;13.508;2023-08-07T10:32:52;20.81;79.49
69823;SHT31;57119;52.516;13.508;2023-08-07T10:35:31;20.57;79.48
69823;SHT31;57119;52.516;13.508;2023-08-07T10:38:06;20.73;78.69
69823;SHT31;57119;52.516;13.508;2023-08-07T10:40:32;20.92;78.27
69823;SHT31;57119;52.516;13.508;2023-08-07T10:42:58;20.87;78.68
69823;SHT31;57119;52.516;13.508;2023-08-07T10:45:25;20.73;79.49
69823;SHT31;57119;52.516;13.508;2023-08-07T10:48:17;21.42;78.38
69823;SHT31;57119;52.516;13.508;2023-08-07T10:50:50;21.36;77.86
69823;SHT31;57119;52.516;13.508;2023-08-07T10:53:20;21.52;77.63
69823;SHT31;57119;52.516;13.508;2023-08-07T10:55:48;21.42;76.96
69823;SHT31;57119;52.516;13.508;2023-08-07T10:58:52;21.23;77.77
69823;SHT31;57119;52.516;13.508;2023-08-07T11:03:53;21.39;78.14
69823;SHT31;57119;52.516;13.508;2023-08-07T11:06:29;20.85;78.15
69823;SHT31;57119;52.516;13.508;2023-08-07T11:08:58;20.46;78.49
69823;SHT31;57119;52.516;13.508;2023-08-07T11:11:24;20.12;79.06
69823;SHT31;57119;52.516;13.508;2023-08-07T11:13:50;19.78;80.65
69823;SHT31;57119;52.516;13.508;2023-08-07T11:16:16;18.89;85.55
69823;SHT31;57119;52.516;13.508;2023-08-07T11:18:42;17.19;95.31
69823;SHT31;57119;52.516;13.508;2023-08-07T11:21:09;16.43;99.80
69823;SHT31;57119;52.516;13.508;2023-08-07T11:23:36;16.45;99.99
69823;SHT31;57119;52.516;13.508;2023-08-07T11:26:01;16.66;99.88
69823;SHT31;57119;52.516;13.508;2023-08-07T11:28:28;17.07;99.22
69823;SHT31;57119;52.516;13.508;2023-08-07T11:30:54;17.53;97.91
69823;SHT31;57119;52.516;13.508;2023-08-07T11:33:22;17.35;98.04
69823;SHT31;57119;52.516;13.508;2023-08-07T11:35:48;17.19;98.43
69823;SHT31;57119;52.516;13.508;2023-08-07T11:38:33;17.73;97.14
69823;SHT31;57119;52.516;13.508;2023-08-07T11:41:03;18.24;94.36
69823;SHT31;57119;52.516;13.508;2023-08-07T11:43:30;18.00;94.45
69823;SHT31;57119;52.516;13.508;2023-08-07T11:46:00;17.55;95.62
69823;SHT31;57119;52.516;13.508;2023-08-07T11:48:27;17.29;96.06
69823;SHT31;57119;52.516;13.508;2023-08-07T11:50:53;17.38;96.16
69823;SHT31;57119;52.516;13.508;2023-08-07T11:53:20;17.98;94.94
69823;SHT31;57119;52.516;13.508;2023-08-07T11:55:54;18.95;92.79
69823;SHT31;57119;52.516;13.508;2023-08-07T11:58:20;19.64;89.05
69823;SHT31;57119;52.516;13.508;2023-08-07T12:00:46;19.68;88.25
69823;SHT31;57119;52.516;13.508;2023-08-07T12:03:28;20.39;86.91
69823;SHT31;57119;52.516;13.508;2023-08-07T12:05:57;20.65;86.17
69823;SHT31;57119;52.516;13.508;2023-08-07T12:08:30;20.46;85.02
69823;SHT31;57119;52.516;13.508;2023-08-07T12:10:56;20.91;84.31
69823;SHT31;57119;52.516;13.508;2023-08-07T12:13:25;21.59;83.35
69823;SHT31;57119;52.516;13.508;2023-08-07T12:15:55;22.08;82.02
69823;SHT31;57119;52.516;13.508;2023-08-07T12:18:21;22.17;82.10
69823;SHT31;57119;52.516;13.508;2023-08-07T12:20:51;22.00;81.67
69823;SHT31;57119;52.516;13.508;2023-08-07T12:23:18;21.83;82.88
69823;SHT31;57119;52.516;13.508;2023-08-07T12:25:44;20.99;84.09
69823;SHT31;57119;52.516;13.508;2023-08-07T12:28:09;20.75;84.95
69823;SHT31;57119;52.516;13.508;2023-08-07T12:30:35;21.25;83.48
69823;SHT31;57119;52.516;13.508;2023-08-07T12:33:01;21.63;81.89
69823;SHT31;57119;52.516;13.508;2023-08-07T12:35:29;22.24;80.85
69823;SHT31;57119;52.516;13.508;2023-08-07T12:37:54;22.24;81.15
69823;SHT31;57119;52.516;13.508;2023-08-07T12:40:20;22.44;80.21
69823;SHT31;57119;52.516;13.508;2023-08-07T12:42:46;22.55;79.06
69823;SHT31;57119;52.516;13.508;2023-08-07T12:45:11;21.52;80.44
69823;SHT31;57119;52.516;13.508;2023-08-07T12:47:37;20.68;81.81
69823;SHT31;57119;52.516;13.508;2023-08-07T12:50:02;20.40;83.20
69823;SHT31;57119;52.516;13.508;2023-08-07T12:52:28;20.70;82.86
69823;SHT31;57119;52.516;13.508;2023-08-07T12:54:54;21.36;80.18
69823;SHT31;57119;52.516;13.508;2023-08-07T12:57:20;21.02;81.40
69823;SHT31;57119;52.516;13.508;2023-08-07T12:59:45;21.64;80.08
69823;SHT31;57119;52.516;13.508;2023-08-07T13:02:11;20.80;80.53
69823;SHT31;57119;52.516;13.508;2023-08-07T13:04:36;20.26;81.94
69823;SHT31;57119;52.516;13.508;2023-08-07T13:07:01;19.93;82.69
69823;SHT31;57119;52.516;13.508;2023-08-07T13:09:27;20.05;81.02
69823;SHT31;57119;52.516;13.508;2023-08-07T13:11:52;20.84;79.46
69823;SHT31;57119;52.516;13.508;2023-08-07T13:14:18;22.89;75.58
69823;SHT31;57119;52.516;13.508;2023-08-07T13:16:43;24.19;71.78
69823;SHT31;57119;52.516;13.508;2023-08-07T13:19:09;24.77;68.58
69823;SHT31;57119;52.516;13.508;2023-08-07T13:21:34;24.91;67.85
69823;SHT31;57119;52.516;13.508;2023-08-07T13:24:00;25.25;66.56
69823;SHT31;57119;52.516;13.508;2023-08-07T13:26:25;25.20;66.89
69823;SHT31;57119;52.516;13.508;2023-08-07T13:28:50;23.55;67.97
69823;SHT31;57119;52.516;13.508;2023-08-07T13:31:16;24.10;67.31
69823;SHT31;57119;52.516;13.508;2023-08-07T13:33:41;24.34;65.71
69823;SHT31;57119;52.516;13.508;2023-08-07T13:36:06;24.50;64.48
69823;SHT31;57119;52.516;13.508;2023-08-07T13:38:32;24.68;62.92
69823;SHT31;57119;52.516;13.508;2023-08-07T13:40:57;24.74;62.34
69823;SHT31;57119;52.516;13.508;2023-08-07T13:43:23;24.72;62.89
69823;SHT31;57119;52.516;13.508;2023-08-07T13:45:48;25.47;62.14
69823;SHT31;57119;52.516;13.508;2023-08-07T13:48:16;24.19;63.29
69823;SHT31;57119;52.516;13.508;2023-08-07T13:50:42;25.04;61.29
69823;SHT31;57119;52.516;13.508;2023-08-07T13:53:07;25.80;61.18
69823;SHT31;57119;52.516;13.508;2023-08-07T13:55:33;25.43;60.83
69823;SHT31;57119;52.516;13.508;2023-08-07T13:57:58;24.94;61.77
69823;SHT31;57119;52.516;13.508;2023-08-07T14:00:24;24.20;62.40
69823;SHT31;57119;52.516;13.508;2023-08-07T14:02:49;23.33;64.13
69823;SHT31;57119;52.516;13.508;2023-08-07T14:05:14;22.79;65.14
69823;SHT31;57119;52.516;13.508;2023-08-07T14:07:40;22.48;65.59
69823;SHT31;57119;52.516;13.508;2023-08-07T14:10:05;22.12;66.47
69823;SHT31;57119;52.516;13.508;2023-08-07T14:12:31;21.63;67.10
69823;SHT31;57119;52.516;13.508;2023-08-07T14:14:56;21.74;68.16
69823;SHT31;57119;52.516;13.508;2023-08-07T14:17:21;21.53;68.82
69823;SHT31;57119;52.516;13.508;2023-08-07T14:19:47;21.35;69.08
69823;SHT31;57119;52.516;13.508;2023-08-07T14:22:12;21.14;69.40
69823;SHT31;57119;52.516;13.508;2023-08-07T14:24:38;21.21;69.93
69823;SHT31;57119;52.516;13.508;2023-08-07T14:27:03;21.35;69.24
69823;SHT31;57119;52.516;13.508;2023-08-07T14:29:29;21.12;70.53
69823;SHT31;57119;52.516;13.508;2023-08-07T14:31:54;21.06;70.26
69823;SHT31;57119;52.516;13.508;2023-08-07T14:34:19;21.09;70.27
69823;SHT31;57119;52.516;13.508;2023-08-07T14:36:45;20.91;69.96
69823;SHT31;57119;52.516;13.508;2023-08-07T14:39:10;20.94;69.81
69823;SHT31;57119;52.516;13.508;2023-08-07T14:41:36;21.79;66.78
69823;SHT31;57119;52.516;13.508;2023-08-07T14:44:01;21.11;67.63
69823;SHT31;57119;52.516;13.508;2023-08-07T14:46:26;22.41;66.24
69823;SHT31;57119;52.516;13.508;2023-08-07T14:48:52;22.87;65.17
69823;SHT31;57119;52.516;13.508;2023-08-07T14:51:17;23.61;62.91
69823;SHT31;57119;52.516;13.508;2023-08-07T14:53:43;22.04;66.21
69823;SHT31;57119;52.516;13.508;2023-08-07T14:56:08;21.53;67.40
69823;SHT31;57119;52.516;13.508;2023-08-07T14:58:34;21.15;68.53
69823;SHT31;57119;52.516;13.508;2023-08-07T15:00:59;20.96;69.61
69823;SHT31;57119;52.516;13.508;2023-08-07T15:03:25;20.41;70.32
69823;SHT31;57119;52.516;13.508;2023-08-07T15:05:50;20.20;70.77
69823;SHT31;57119;52.516;13.508;2023-08-07T15:08:15;20.00;70.56
69823;SHT31;57119;52.516;13.508;2023-08-07T15:10:41;19.98;71.25
69823;SHT31;57119;52.516;13.508;2023-08-07T15:13:06;19.99;71.03
69823;SHT31;57119;52.516;13.508;2023-08-07T15:15:32;20.56;70.08
69823;SHT31;57119;52.516;13.508;2023-08-07T15:17:58;21.38;68.14